Time;durP1;ratioP1;P1;durP2;ratioP2;P2;SDS_P1;SDS_P2;PMS_P1;PMS_P2;Temp;Humidity;BMP_temperature;BMP_pressure;BME280_temperature;BME280_humidity;BME280_pressure;Samples;Min_cycle;Max_cycle;Signal;HPM_P1;HPM_P2
2023/01/05 00:01:53;;;;;;;22.42;3.00;;;10.10;99.90;;;8.73;100.00;99810.22;5006568;28;20390;-82
2023/01/05 00:04:19;;;;;;;20.25;2.67;;;10.10;99.90;;;8.71;100.00;99816.47;5007215;28;20036;-82
2023/01/05 00:06:54;;;;;;;24.38;2.45;;;10.10;99.90;;;8.72;100.00;99807.66;5024081;28;20042;-84
2023/01/05 00:09:20;;;;;;;17.05;2.67;;;10.10;99.90;;;8.69;100.00;99813.94;5009210;28;20030;-82
2023/01/05 00:23:14;;;;;;;21.25;3.17;;;10.00;99.90;;;8.59;100.00;99807.47;5026935;28;20040;-83
2023/01/05 00:25:48;;;;;;;20.67;2.35;;;10.00;99.90;;;8.60;100.00;99804.75;5028271;28;20030;-83
2023/01/05 00:28:16;;;;;;;19.30;2.72;;;10.00;99.90;;;8.61;100.00;99801.19;5025502;28;20029;-82
2023/01/05 00:30:50;;;;;;;19.20;2.70;;;10.00;99.90;;;8.57;100.00;99797.06;5025795;28;20042;-83
2023/01/05 00:33:16;;;;;;;19.92;2.75;;;10.00;99.90;;;8.58;100.00;99803.16;5006230;28;20043;-84
2023/01/05 00:35:53;;;;;;;;;;;;;;;;;;;;;
2023/01/05 00:38:19;;;;;;;23.00;3.05;;;10.00;99.90;;;8.60;100.00;99799.53;5008535;28;20144;-83
2023/01/05 00:40:59;;;;;;;23.17;2.92;;;10.00;99.90;;;8.61;100.00;99800.34;5025322;28;20557;-83
2023/01/05 00:43:25;;;;;;;18.60;2.90;;;10.00;99.90;;;8.56;100.00;99790.13;5024840;28;20021;-82
2023/01/05 00:45:51;;;;;;;29.45;3.50;;;10.00;99.90;;;8.61;100.00;99800.34;5025452;28;20041;-82
2023/01/05 00:48:16;;;;;;;24.30;3.03;;;10.00;99.90;;;8.61;100.00;99801.19;5023234;28;20125;-84
2023/01/05 00:50:42;;;;;;;22.38;2.90;;;10.00;99.90;;;8.63;100.00;99799.34;5011216;28;20029;-83
2023/01/05 00:53:08;;;;;;;28.27;3.05;;;10.00;99.90;;;8.65;100.00;99798.44;5025232;28;20026;-81
2023/01/05 00:55:38;;;;;;;24.52;2.67;;;10.00;99.90;;;8.62;100.00;99795.03;5006243;28;20097;-82
2023/01/05 00:58:04;;;;;;;27.63;3.58;;;10.00;99.90;;;8.62;100.00;99791.56;5024391;28;20032;-83
2023/01/05 01:00:30;;;;;;;24.73;3.75;;;10.00;99.90;;;8.64;100.00;99792.34;5022444;28;20108;-82
2023/01/05 01:02:56;;;;;;;33.83;3.70;;;10.00;99.90;;;8.63;100.00;99788.84;5005919;28;20444;-82
2023/01/05 01:05:22;;;;;;;24.15;3.05;;;10.00;99.90;;;8.62;100.00;99800.28;5023389;28;20086;-84
2023/01/05 01:07:48;;;;;;;25.70;3.58;;;10.00;99.90;;;8.61;100.00;99784.63;5011638;28;20041;-83
2023/01/05 01:10:20;;;;;;;29.27;3.08;;;10.00;99.90;;;8.60;100.00;99788.19;5006654;28;20038;-83
2023/01/05 01:12:46;;;;;;;30.42;3.20;;;10.00;99.90;;;8.59;100.00;99791.72;4990344;28;20026;-81
2023/01/05 01:15:12;;;;;;;26.20;3.28;;;10.00;99.90;;;8.57;100.00;99785.72;5006578;28;20164;-84
2023/01/05 01:17:37;;;;;;;31.38;3.00;;;10.00;99.90;;;8.59;100.00;99783.84;5024105;28;20048;-84
2023/01/05 01:20:13;;;;;;;27.85;3.22;;;10.00;99.90;;;8.59;100.00;99783.84;5023316;28;20554;-83
2023/01/05 01:22:39;;;;;;;26.43;3.70;;;9.90;99.90;;;8.60;100.00;99788.19;5003419;28;20026;-82
2023/01/05 01:25:05;;;;;;;35.75;3.30;;;10.00;99.90;;;8.62;100.00;99786.31;5006055;28;21516;-82
2023/01/05 01:27:32;;;;;;;22.00;2.92;;;10.00;99.90;;;8.63;100.00;99803.75;5024222;28;20030;-83
2023/01/05 01:30:08;;;;;;;26.13;4.53;;;10.00;99.90;;;8.62;100.00;99810.78;5022351;28;20111;-83
2023/01/05 01:32:41;;;;;;;17.50;2.83;;;10.00;99.90;;;8.54;100.00;99804.25;5021766;28;20144;-84
2023/01/05 01:35:08;;;;;;;29.02;3.28;;;9.90;99.90;;;8.48;100.00;99800.16;5030011;28;20033;-83
2023/01/05 01:37:33;;;;;;;30.95;3.20;;;9.90;99.90;;;8.45;100.00;99805.59;5008223;28;20037;-82
2023/01/05 01:39:59;;;;;;;30.00;3.55;;;9.90;99.90;;;8.49;100.00;99801.00;5029410;28;20108;-81
2023/01/05 01:42:25;;;;;;;25.42;2.90;;;9.90;99.90;;;8.48;100.00;99804.56;5007414;28;20433;-82
2023/01/05 01:45:00;;;;;;;27.88;3.40;;;9.90;99.90;;;8.50;100.00;99814.03;5014568;28;20069;-83
2023/01/05 01:47:51;;;;;;;21.20;3.28;;;9.90;99.90;;;8.45;100.00;99812.63;5023748;28;20030;-83
2023/01/05 01:50:23;;;;;;;22.88;2.33;;;9.80;99.90;;;8.43;100.00;99823.19;5009639;28;20036;-84
2023/01/05 01:52:55;;;;;;;13.15;2.10;;;9.80;99.90;;;8.37;100.00;99828.69;5022839;28;20621;-83
2023/01/05 01:55:26;;;;;;;21.45;2.42;;;9.80;99.90;;;8.37;100.00;99828.69;5009295;28;20029;-85
2023/01/05 01:57:52;;;;;;;18.80;2.50;;;9.70;99.90;;;8.32;100.00;99836.81;5025732;28;20348;-83
2023/01/05 02:00:20;;;;;;;21.52;2.25;;;9.70;99.90;;;8.33;100.00;99833.25;5022088;28;20029;-83
2023/01/05 02:02:52;;;;;;;10.10;1.90;;;9.70;99.90;;;8.21;100.00;99854.88;5026387;28;20021;-82
2023/01/05 02:05:29;;;;;;;12.73;2.22;;;9.30;99.90;;;7.48;100.00;99854.94;5010418;28;20062;-83
2023/01/05 02:07:55;;;;;;;8.85;1.88;;;8.90;99.90;;;7.11;100.00;99850.59;5011686;28;20607;-85
2023/01/05 02:10:50;;;;;;;9.30;2.33;;;8.70;99.90;;;6.98;100.00;99853.75;5026161;28;20143;-85
2023/01/05 02:13:34;;;;;;;8.55;1.95;;;8.60;99.90;;;6.88;100.00;99864.72;5024358;28;21379;-83
2023/01/05 02:16:17;;;;;;;14.88;1.80;;;8.50;99.90;;;6.88;100.00;99867.34;5009746;28;20053;-82
2023/01/05 02:18:55;;;;;;;18.70;2.15;;;8.50;99.90;;;6.83;100.00;99885.88;5026385;28;20437;-83
2023/01/05 02:21:35;;;;;;;15.05;2.10;;;8.30;99.90;;;6.69;100.00;99864.69;5026782;28;20116;-83
2023/01/05 02:24:46;;;;;;;13.15;1.90;;;8.30;99.90;;;6.60;100.00;99880.78;5023475;28;20034;-82
2023/01/05 02:27:48;;;;;;;6.30;1.48;;;8.20;99.90;;;6.55;100.00;99878.38;5009858;28;20041;-83
2023/01/05 02:30:41;;;;;;;14.05;1.85;;;8.20;99.90;;;6.53;100.00;99886.28;5027053;28;20026;-81
2023/01/05 02:33:37;;;;;;;11.50;2.33;;;8.10;99.90;;;6.47;100.00;99877.84;5027633;28;20506;-81
2023/01/05 02:36:26;;;;;;;21.27;2.20;;;8.00;99.90;;;6.49;100.00;99886.50;5006353;28;20069;-82
2023/01/05 02:39:09;;;;;;;28.40;3.58;;;8.00;99.90;;;6.43;100.00;99886.75;5024009;28;20285;-80
2023/01/05 02:42:07;;;;;;;10.38;1.83;;;8.00;99.90;;;6.33;98.99;99892.38;5022271;28;20154;-81
2023/01/05 02:44:33;;;;;;;9.68;1.45;;;7.90;99.90;;;6.30;98.70;99883.81;4993897;28;20041;-84
2023/01/05 02:47:23;;;;;;;19.20;1.90;;;7.90;99.90;;;6.30;99.41;99887.25;5007382;28;20030;-82
2023/01/05 02:50:29;;;;;;;18.35;1.83;;;7.90;99.90;;;6.33;99.68;99886.31;4998642;28;20111;-81
2023/01/05 02:53:51;;;;;;;21.52;1.85;;;7.90;99.90;;;6.41;99.84;99893.81;5007043;28;20119;-82
2023/01/05 02:56:32;;;;;;;19.75;2.88;;;7.90;99.90;;;6.44;98.78;99889.31;5008040;28;20040;-82
2023/01/05 02:59:12;;;;;;;12.05;1.77;;;8.00;99.90;;;6.51;98.59;99888.13;5021815;28;20017;-81
2023/01/05 03:01:53;;;;;;;15.27;1.83;;;8.00;99.90;;;6.60;98.44;99891.25;5023808;28;20045;-83
2023/01/05 03:04:38;;;;;;;10.80;1.42;;;8.10;99.90;;;6.66;96.83;99896.22;5022987;28;20041;-82
2023/01/05 03:07:16;;;;;;;16.90;2.33;;;8.20;99.90;;;6.69;96.43;99890.84;5008331;28;20025;-85
2023/01/05 03:09:44;;;;;;;16.48;2.28;;;8.10;99.90;;;6.72;96.08;99891.56;5039597;23;20136;-82
2023/01/05 03:15:29;;;;;;;19.40;3.00;;;8.20;99.90;;;6.77;95.85;99891.38;5035669;28;20096;-83
2023/01/05 03:18:08;;;;;;;17.17;1.88;;;8.20;99.90;;;6.80;95.06;99887.75;5035782;28;20021;-83
2023/01/05 03:20:46;;;;;;;14.18;1.63;;;8.30;99.90;;;6.81;94.33;99902.56;5025704;28;20037;-82
2023/01/05 03:37:58;;;;;;;18.58;2.05;;;8.40;99.90;;;6.94;93.75;99909.78;5028074;28;20109;-81
2023/01/05 03:40:31;;;;;;;17.67;2.25;;;8.40;99.90;;;6.92;94.29;99908.16;5044319;28;20025;-82
2023/01/05 03:42:58;;;;;;;20.52;2.00;;;8.40;99.90;;;6.90;93.98;99905.59;5026146;28;20025;-83
2023/01/05 03:45:38;;;;;;;16.58;1.85;;;8.40;99.90;;;6.90;93.53;99905.59;5014748;28;20089;-83
2023/01/05 03:48:14;;;;;;;19.08;2.50;;;8.40;99.90;;;6.91;94.00;99917.78;5015125;28;20106;-83
2023/01/05 03:50:40;;;;;;;22.83;1.92;;;8.30;99.90;;;6.85;93.17;99910.19;5035354;28;20034;-82
2023/01/05 03:53:06;;;;;;;12.20;1.60;;;8.30;99.90;;;6.82;91.30;99906.84;5027729;28;20037;-82
2023/01/05 03:55:43;;;;;;;13.07;2.22;;;8.30;99.90;;;6.79;91.26;99926.16;5024829;28;20101;-84
2023/01/05 03:58:09;;;;;;;15.35;1.95;;;8.30;99.90;;;6.73;91.35;99915.97;5019093;28;20472;-80
2023/01/05 04:00:58;;;;;;;22.90;2.00;;;8.20;99.90;;;6.67;91.39;99917.06;5043329;28;20030;-82
2023/01/05 04:03:26;;;;;;;17.35;2.20;;;8.20;99.90;;;6.58;91.86;99922.69;5026410;28;20036;-82
2023/01/05 04:05:52;;;;;;;16.05;2.10;;;8.20;99.90;;;6.65;91.94;99928.53;5016808;28;20429;-81
2023/01/05 04:08:18;;;;;;;20.52;2.63;;;8.10;99.90;;;6.59;92.11;99934.88;5007541;28;20033;-80
2023/01/05 04:10:43;;;;;;;16.13;1.92;;;8.10;99.90;;;6.60;92.57;99930.50;5037647;28;20109;-83
2023/01/05 04:13:18;;;;;;;15.27;2.20;;;8.10;99.90;;;6.63;92.69;99927.72;5015352;28;20437;-82
2023/01/05 04:15:46;;;;;;;22.90;2.55;;;8.10;99.90;;;6.67;92.63;99938.00;5023626;28;20030;-83
2023/01/05 04:18:19;;;;;;;15.15;1.55;;;8.20;99.90;;;6.66;93.05;99932.84;5011624;28;20022;-81
2023/01/05 04:20:45;;;;;;;19.75;2.25;;;8.10;99.90;;;6.66;92.12;99938.94;5008649;28;20025;-81
2023/01/05 04:23:11;;;;;;;21.73;2.30;;;8.20;99.90;;;6.70;92.30;99940.50;5021170;28;20032;-82
2023/01/05 04:25:37;;;;;;;16.13;1.90;;;8.20;99.90;;;6.67;92.48;99934.53;5027627;28;20037;-82
2023/01/05 04:28:03;;;;;;;16.63;1.63;;;8.10;99.90;;;6.57;92.22;99932.31;5009523;28;20155;-82
2023/01/05 04:30:34;;;;;;;18.25;1.88;;;8.10;99.90;;;6.54;92.32;99926.38;5028139;28;20140;-81
2023/01/05 04:33:00;;;;;;;19.98;2.25;;;;;;;6.56;92.23;99935.84;5021284;28;20029;-82
2023/01/05 04:35:26;;;;;;;20.05;2.65;;;8.10;99.90;;;6.61;92.31;99938.28;5023984;28;20030;-82
2023/01/05 04:37:51;;;;;;;21.63;2.22;;;8.10;99.90;;;6.56;91.78;99942.84;5012660;28;20029;-82
2023/01/05 04:40:17;;;;;;;16.35;3.00;;;8.10;99.90;;;6.61;91.64;99940.03;5026255;28;20095;-81
2023/01/05 04:42:43;;;;;;;14.27;1.52;;;8.10;99.90;;;6.65;91.25;99934.63;5026518;28;20032;-82
2023/01/05 04:45:12;;;;;;;18.98;1.50;;;8.10;99.90;;;6.65;91.52;99938.97;5021756;28;20097;-80
2023/01/05 04:47:38;;;;;;;18.95;2.08;;;8.10;99.90;;;6.64;91.36;99939.91;5026086;28;20089;-83
2023/01/05 04:50:05;;;;;;;19.60;2.53;;;8.10;99.90;;;6.64;91.28;99930.28;5028975;28;20119;-83
2023/01/05 04:52:30;;;;;;;23.63;2.60;;;8.10;99.90;;;6.64;91.97;99932.91;5023605;28;20029;-81
2023/01/05 04:54:59;;;;;;;21.95;2.65;;;8.10;99.90;;;6.64;91.81;99932.06;5083002;23;20088;-87
2023/01/05 04:57:36;;;;;;;15.95;1.85;;;;;;;6.69;91.81;99927.47;5015842;28;20033;-86
2023/01/05 05:00:10;;;;;;;19.20;2.35;;;;;;;6.71;91.73;99936.09;5030221;28;20048;-86
2023/01/05 05:02:38;;;;;;;15.27;2.10;;;8.10;99.90;;;6.70;92.27;99940.50;5033715;28;20171;-87
2023/01/05 05:05:17;;;;;;;22.05;2.13;;;;;;;6.71;91.57;99941.34;5004030;28;20010;-86
2023/01/05 05:07:43;;;;;;;16.33;2.10;;;8.10;99.90;;;6.71;92.26;99939.56;5027871;28;20065;-87
2023/01/05 05:10:09;;;;;;;21.35;2.20;;;;;;;6.74;91.85;99951.69;5031944;28;20064;-86
2023/01/05 05:13:07;;;;;;;23.77;2.45;;;8.20;99.90;;;6.82;91.20;99961.81;5028314;28;20033;-87
2023/01/05 05:15:59;;;;;;;18.30;2.13;;;8.20;99.90;;;6.82;91.95;99967.88;5048089;28;20029;-87
2023/01/05 05:18:57;;;;;;;13.10;1.70;;;;;;;6.85;91.72;99962.53;5013061;28;20505;-88
2023/01/05 05:21:23;;;;;;;9.57;1.10;;;8.30;99.90;;;6.84;91.55;99975.69;5019550;28;20033;-86
2023/01/05 05:23:58;;;;;;;15.75;2.30;;;8.30;99.90;;;6.87;90.68;99959.84;5010763;28;20497;-86
2023/01/05 05:26:26;;;;;;;12.75;1.80;;;8.30;99.90;;;6.89;90.41;99956.25;5024118;28;20525;-87
2023/01/05 05:29:03;;;;;;;14.05;1.80;;;8.30;99.90;;;6.91;90.41;99964.03;5017738;28;20037;-88
2023/01/05 05:31:48;;;;;;;7.20;1.20;;;8.40;99.90;;;6.90;90.25;99973.66;5034663;28;20037;-88
2023/01/05 05:34:18;;;;;;;18.13;2.00;;;;;;;6.95;90.00;99966.47;5012559;28;20025;-87
2023/01/05 05:36:50;;;;;;;15.15;1.90;;;;;;;6.98;90.11;99971.56;5033380;28;20044;-87
2023/01/05 05:39:24;;;;;;;18.90;2.20;;;8.40;99.90;;;6.98;90.27;99968.94;5022885;28;20041;-86
2023/01/05 05:41:50;;;;;;;17.95;2.03;;;;;;;7.01;90.35;99970.56;5006850;28;20025;-85
2023/01/05 05:44:16;;;;;;;19.10;2.42;;;;;;;7.01;90.05;99975.78;5018605;28;20029;-86
2023/01/05 05:46:42;;;;;;;19.65;1.63;;;8.40;99.90;;;7.00;90.06;99987.19;5032187;28;20032;-88
2023/01/05 05:49:33;;;;;;;18.95;2.22;;;;;;;7.03;89.71;99971.34;5013960;28;20025;-87
2023/01/05 05:51:59;;;;;;;15.85;1.77;;;8.50;99.90;;;7.01;89.29;99981.03;5022784;28;20115;-86
2023/01/05 05:54:25;;;;;;;13.30;1.85;;;8.50;99.90;;;7.01;89.75;99990.66;5017349;28;20033;-87
2023/01/05 05:56:51;;;;;;;22.10;2.53;;;;;;;7.01;88.67;99983.66;5015244;28;20028;-86
2023/01/05 05:59:30;;;;;;;17.23;1.85;;;8.50;99.90;;;7.03;88.71;99978.34;5026997;28;20051;-87
2023/01/05 06:02:02;;;;;;;15.88;1.90;;;;;;;7.03;89.10;99983.59;5015409;28;20091;-88
2023/01/05 06:04:28;;;;;;;13.45;1.88;;;8.50;99.90;;;7.03;88.55;99979.19;5031720;28;21063;-85
2023/01/05 06:06:57;;;;;;;10.73;1.75;;;8.50;99.90;;;7.03;88.56;99973.97;5031394;28;20021;-85
2023/01/05 06:10:20;;;;;;;18.27;2.05;;;8.50;99.90;;;7.01;88.52;99983.66;5015116;28;20112;-87
2023/01/05 06:13:04;;;;;;;;;;;;;;;;;;;;;
2023/01/05 06:15:31;;;;;;;12.40;1.70;;;;;;;6.99;88.49;99988.09;5046540;28;20048;-86
2023/01/05 06:18:09;;;;;;;14.18;2.15;;;;;;;7.04;88.68;100001.84;5028032;28;20044;-87
2023/01/05 06:21:08;;;;;;;8.75;1.30;;;8.50;99.90;;;7.01;89.21;99988.88;5032920;28;20060;-88
2023/01/05 06:23:54;;;;;;;10.50;1.65;;;;;;;7.00;89.02;99995.03;5026550;28;20079;-86
2023/01/05 06:26:30;;;;;;;;;;;8.50;99.90;;;6.98;88.60;99986.41;5029028;28;20108;-86
2023/01/05 06:28:59;;;;;;;18.10;1.80;;;;;;;7.04;89.31;99980.03;5020626;28;20404;-85
2023/01/05 06:31:31;;;;;;;12.52;1.02;;;;;;;7.00;89.25;99987.19;5033792;28;20116;-89
2023/01/05 06:33:57;;;;;;;12.00;2.08;;;8.50;99.90;;;6.97;89.53;99984.69;5037569;28;20404;-85
2023/01/05 06:36:30;;;;;;;10.98;1.60;;;8.50;99.90;;;6.97;89.73;99974.22;5035264;28;20025;-87
2023/01/05 06:38:56;;;;;;;10.27;1.48;;;8.50;99.90;;;7.04;88.83;99978.28;5021071;28;20051;-85
2023/01/05 06:41:29;;;;;;;16.92;2.33;;;8.50;99.90;;;7.05;89.78;99987.84;5016275;28;20021;-86
2023/01/05 06:44:11;;;;;;;;;;;;;;;;;;;;;
2023/01/05 06:46:39;;;;;;;18.25;2.00;;;8.50;99.90;;;7.03;89.56;99979.19;5033175;28;20412;-87
2023/01/05 06:49:05;;;;;;;11.27;1.38;;;8.50;99.90;;;7.05;89.93;99994.84;5021131;28;20405;-86
2023/01/05 06:51:31;;;;;;;15.30;1.88;;;8.50;99.90;;;7.08;90.15;100008.63;5014073;28;20036;-85
2023/01/05 06:53:57;;;;;;;16.55;1.90;;;;;;;7.07;89.99;99990.41;5028535;28;20033;-85
2023/01/05 06:56:34;;;;;;;10.95;1.40;;;8.50;99.90;;;7.02;90.33;100008.91;5032646;28;20029;-85
2023/01/05 06:59:03;;;;;;;12.35;1.60;;;8.50;99.90;;;6.98;90.75;100009.97;5032725;28;20029;-85
2023/01/05 07:01:32;;;;;;;11.50;1.10;;;;;;;6.99;91.16;100003.81;5033440;28;20116;-85
2023/01/05 07:03:58;;;;;;;14.13;1.55;;;8.50;99.90;;;6.99;91.34;100015.13;5031593;28;20068;-85
2023/01/05 07:06:26;;;;;;;15.27;1.80;;;8.50;99.90;;;7.00;91.56;100018.59;5032688;28;20010;-85
2023/01/05 07:09:02;;;;;;;14.52;1.50;;;8.50;99.90;;;7.00;91.24;100013.38;5018898;28;20039;-86
2023/01/05 07:11:28;;;;;;;16.70;1.65;;;8.40;99.90;;;6.98;91.97;100023.06;5032230;28;20013;-85
2023/01/05 07:14:01;;;;;;;5.38;0.85;;;8.50;99.90;;;6.99;91.17;100019.50;5019560;28;20033;-87
2023/01/05 07:16:27;;;;;;;11.60;1.23;;;8.50;99.90;;;7.04;91.20;100021.91;5033526;28;20116;-84
2023/01/05 07:19:00;;;;;;;12.93;1.67;;;8.50;99.90;;;6.99;92.21;100041.28;5034068;28;20029;-86
2023/01/05 07:21:46;;;;;;;14.38;1.55;;;8.40;99.90;;;6.80;95.59;100031.69;5032807;28;20108;-86
2023/01/05 07:24:12;;;;;;;9.43;1.55;;;;;;;6.74;98.13;100031.03;5033561;28;20033;-85
2023/01/05 07:26:38;;;;;;;22.38;1.83;;;8.30;99.90;;;6.73;99.31;100037.16;5029132;28;20131;-85
2023/01/05 07:29:07;;;;;;;9.15;1.40;;;8.30;99.90;;;6.67;100.00;100039.19;5016233;28;20017;-88
2023/01/05 07:31:43;;;;;;;11.38;1.25;;;;;;;6.58;100.00;100035.19;5016517;28;20033;-86
2023/01/05 07:34:09;;;;;;;15.15;1.63;;;8.10;99.90;;;6.57;100.00;100042.19;5022081;28;20064;-88
2023/01/05 07:36:44;;;;;;;10.27;1.40;;;8.10;99.90;;;6.61;100.00;100042.91;5012347;28;20030;-85
2023/01/05 07:39:10;;;;;;;16.45;1.73;;;;;;;6.66;100.00;100043.56;5034533;28;20114;-88
2023/01/05 07:41:36;;;;;;;12.13;1.23;;;8.10;99.90;;;6.62;100.00;100036.75;5029418;28;20029;-86
2023/01/05 07:44:02;;;;;;;8.43;1.45;;;8.10;99.90;;;6.68;100.00;100038.28;5026017;28;20035;-86
2023/01/05 07:46:38;;;;;;;11.98;1.17;;;;;;;6.71;100.00;100046.84;5012136;28;20026;-85
2023/01/05 07:49:07;;;;;;;16.13;1.80;;;8.10;99.90;;;6.73;100.00;100045.00;5028848;28;20025;-87
2023/01/05 07:51:47;;;;;;;13.05;1.63;;;8.20;99.90;;;6.72;100.00;100052.94;5018652;28;20029;-85
2023/01/05 07:54:21;;;;;;;15.13;2.30;;;8.20;99.90;;;6.69;100.00;100047.81;5018738;28;20025;-86
2023/01/05 07:56:47;;;;;;;12.73;1.80;;;8.20;99.90;;;6.67;100.00;100055.72;5015033;28;20633;-85
2023/01/05 07:59:16;;;;;;;9.43;1.77;;;8.20;99.90;;;6.67;100.00;100057.50;5019515;28;20104;-87
2023/01/05 08:01:47;;;;;;;15.27;1.92;;;8.20;99.90;;;6.66;100.00;100059.25;5018906;28;20049;-86
2023/01/05 08:04:30;;;;;;;13.88;1.67;;;;;;;6.72;100.00;100069.50;5013961;28;20082;-86
2023/01/05 08:06:57;;;;;;;11.15;1.58;;;;;;;6.74;100.00;100067.66;5032674;28;20025;-86
2023/01/05 08:12:29;;;;;;;11.55;1.55;;;;;;;6.73;100.00;100070.31;5049697;28;20083;-85
2023/01/05 08:14:58;;;;;;;16.30;2.28;;;8.20;99.90;;;6.75;100.00;100085.03;5028496;28;20055;-85
2023/01/05 08:17:31;;;;;;;12.60;1.58;;;8.20;99.90;;;6.71;100.00;100072.16;5012562;28;20036;-86
2023/01/05 08:20:00;;;;;;;13.68;1.60;;;8.20;99.90;;;6.66;100.00;100089.81;5015999;28;20021;-85
2023/01/05 08:22:35;;;;;;;15.23;1.25;;;8.20;99.90;;;6.61;100.00;100095.25;5017573;28;20033;-86
2023/01/05 08:25:23;;;;;;;14.47;1.63;;;8.10;99.90;;;6.61;100.00;100103.09;5025354;23;20094;-86
2023/01/05 08:27:48;;;;;;;;;;;8.20;99.90;;;6.58;100.00;100103.19;5020446;28;20264;-86
2023/01/05 08:30:22;;;;;;;18.80;1.77;;;8.10;99.90;;;6.53;100.00;100100.75;5018677;28;19913;-86
2023/01/05 08:32:48;;;;;;;29.38;2.13;;;8.10;99.90;;;6.60;100.00;100111.84;5011311;28;20276;-86
2023/01/05 08:35:39;;;;;;;25.15;2.45;;;8.10;99.90;;;6.58;100.00;100111.03;5004101;28;20036;-87
2023/01/05 08:38:07;;;;;;;12.68;1.67;;;;;;;6.61;100.00;100105.69;5029758;28;20042;-86
2023/01/05 08:40:59;;;;;;;19.40;1.67;;;8.10;99.90;;;6.62;100.00;100098.69;5034783;28;20055;-86
2023/01/05 08:43:27;;;;;;;15.82;1.50;;;8.10;99.90;;;6.60;100.00;100096.13;5005714;28;20033;-86
2023/01/05 08:46:07;;;;;;;24.65;2.22;;;;;;;6.65;100.00;100109.91;4999949;28;20390;-87
2023/01/05 08:48:42;;;;;;;24.10;1.98;;;8.10;99.90;;;6.60;100.00;100106.59;5034728;28;20036;-87
2023/01/05 08:51:08;;;;;;;16.87;2.00;;;;;;;6.60;100.00;100124.91;5002537;28;20045;-86
2023/01/05 08:53:46;;;;;;;17.38;2.53;;;;;;;6.66;100.00;100143.00;5044889;28;20271;-89
2023/01/05 08:56:16;;;;;;;19.90;1.98;;;8.10;99.90;;;6.65;100.00;100135.19;5013877;28;20029;-87
2023/01/05 08:59:08;;;;;;;15.85;2.20;;;;;;;6.72;100.00;100141.91;5020709;28;20018;-87
2023/01/05 09:01:40;;;;;;;26.10;2.47;;;;;;;6.65;100.00;100143.91;5032318;28;20086;-88
2023/01/05 09:09:23;;;;;;;4.13;0.90;;;7.90;99.90;;;6.35;100.00;100166.88;5049667;28;20049;-87
2023/01/05 09:12:10;;;;;;;11.23;1.50;;;;;;;6.33;100.00;100176.53;5016590;28;20033;-86
2023/01/05 09:14:42;;;;;;;11.50;1.25;;;;;;;6.27;100.00;100164.53;5030511;28;20477;-87
2023/01/05 09:17:14;;;;;;;7.40;1.05;;;;;;;6.24;100.00;100182.97;5026013;28;20033;-87
2023/01/05 09:20:02;;;;;;;9.52;1.00;;;;;;;6.22;100.00;100181.28;5033432;28;20397;-87
2023/01/05 09:22:37;;;;;;;8.90;1.40;;;;;;;6.10;100.00;100187.84;5031501;28;20512;-88
2023/01/05 09:27:59;;;;;;;14.73;2.28;;;;;;;6.06;100.00;100209.78;5040876;28;20041;-86
2023/01/05 09:30:58;;;;;;;17.15;2.00;;;;;;;5.95;100.00;100218.84;5029611;28;20032;-87
2023/01/05 09:33:37;;;;;;;13.68;1.48;;;7.50;99.90;;;5.86;100.00;100224.38;5029246;28;20441;-87
2023/01/05 09:36:17;;;;;;;15.25;1.67;;;;;;;5.78;100.00;100231.63;5016210;28;20037;-86
2023/01/05 09:38:55;;;;;;;11.68;1.50;;;;;;;5.70;100.00;100246.69;5024960;28;20060;-88
2023/01/05 09:42:29;;;;;;;8.90;1.63;;;7.30;99.90;;;5.62;100.00;100251.34;5026273;28;20041;-86
2023/01/05 09:45:46;;;;;;;;;;;;;;;;;;;;;
2023/01/05 09:49:00;;;;;;;3.20;0.43;;;;;;;5.51;100.00;100264.75;5024331;28;20048;-87
2023/01/05 09:51:30;;;;;;;5.15;0.80;;;7.10;99.90;;;5.62;100.00;100296.59;5032161;28;20041;-87
2023/01/05 09:54:22;;;;;;;3.58;0.60;;;;;;;5.48;100.00;100302.25;5017028;28;20402;-86
2023/01/05 09:57:18;;;;;;;4.00;0.50;;;;;;;5.30;100.00;100319.38;5036698;28;20029;-86
2023/01/05 10:00:15;;;;;;;1.67;0.47;;;;;;;4.93;100.00;100340.53;5024704;28;20076;-88
2023/01/05 10:06:38;;;;;;;12.40;1.67;;;6.20;99.90;;;4.31;100.00;100363.09;4993347;28;20071;-88
2023/01/05 10:09:32;;;;;;;9.47;1.83;;;;;;;4.17;100.00;100378.25;4984165;28;20052;-86
2023/01/05 10:19:30;;;;;;;4.10;1.10;;;5.60;99.90;;;3.86;100.00;100402.44;5052605;28;20033;-89
2023/01/05 10:22:58;;;;;;;7.40;1.35;;;5.60;99.90;;;3.82;100.00;100400.81;4999536;28;20033;-87
2023/01/05 10:26:40;;;;;;;5.07;1.02;;;5.50;99.90;;;3.78;100.00;100425.22;5058860;23;20057;-86
2023/01/05 10:29:35;;;;;;;11.02;1.58;;;5.40;99.90;;;3.66;100.00;100420.28;4939826;28;20122;-87
2023/01/05 10:36:29;;;;;;;7.47;1.35;;;;;;;3.63;100.00;100436.84;4945582;28;20043;-89
2023/01/05 10:47:27;;;;;;;4.38;0.95;;;;;;;3.44;100.00;100479.81;4865973;29;20292;-87
2023/01/05 10:56:20;;;;;;;6.10;1.63;;;;;;;3.34;100.00;100481.72;4831965;29;20493;-87
2023/01/05 10:59:11;;;;;;;6.68;1.50;;;5.00;99.90;;;3.35;100.00;100496.47;4876261;29;20037;-87
2023/01/05 11:01:52;;;;;;;13.18;1.42;;;5.00;99.90;;;3.34;100.00;100497.34;4958433;28;20081;-86
2023/01/05 11:07:13;;;;;;;4.40;1.10;;;;;;;3.39;100.00;100516.34;5036943;28;20049;-87
2023/01/05 11:10:03;;;;;;;4.63;1.27;;;;;;;3.41;100.00;100527.56;5025479;28;20107;-85
2023/01/05 11:12:42;;;;;;;;;;;;;;;;;;;;;
2023/01/05 11:15:15;;;;;;;6.20;0.98;;;;;;;3.44;100.00;100542.28;5022823;28;20037;-86
2023/01/05 11:18:21;;;;;;;7.22;1.15;;;5.10;99.90;;;3.41;100.00;100552.72;5020410;28;20678;-86
2023/01/05 11:21:44;;;;;;;;;;;;;;;;;;;;;
2023/01/05 11:25:00;;;;;;;8.27;1.30;;;5.10;99.90;;;3.49;100.00;100577.72;5037668;28;20029;-85
2023/01/05 11:27:57;;;;;;;8.60;1.20;;;;;;;3.41;100.00;100577.03;4992033;28;20482;-85
2023/01/05 11:30:57;;;;;;;7.03;1.73;;;5.00;99.90;;;3.36;100.00;100586.66;5022584;28;20029;-85
2023/01/05 11:33:38;;;;;;;7.35;1.08;;;5.00;99.90;;;3.36;100.00;100606.63;5023508;28;20486;-86
2023/01/05 11:36:16;;;;;;;8.25;1.58;;;;;;;3.42;100.00;100596.94;5008536;28;20470;-86
2023/01/05 11:38:43;;;;;;;8.23;1.60;;;;;;;3.34;100.00;100614.44;5025210;28;20029;-88
2023/01/05 11:41:20;;;;;;;3.92;1.00;;;;;;;3.31;100.00;100635.34;5021113;28;20033;-85
2023/01/05 11:48:28;;;;;;;4.68;1.00;;;5.00;99.90;;;3.31;100.00;100632.75;5040156;28;20413;-85
2023/01/05 11:50:58;;;;;;;5.38;1.25;;;5.00;99.90;;;3.30;100.00;100633.63;5022560;28;20065;-85
2023/01/05 11:57:21;;;;;;;2.95;0.95;;;;;;;3.35;100.00;100657.84;5025116;28;20546;-85
2023/01/05 12:00:02;;;;;;;5.25;1.17;;;;;;;3.42;100.00;100664.63;5023566;28;20036;-87
2023/01/05 12:03:27;;;;;;;9.20;1.48;;;5.10;99.90;;;3.47;100.00;100673.22;5016325;28;20500;-84
2023/01/05 12:06:07;;;;;;;2.88;0.70;;;5.10;99.90;;;3.47;100.00;100673.22;5044975;23;20456;-84
2023/01/05 12:09:15;;;;;;;10.70;2.05;;;5.20;99.90;;;3.54;100.00;100696.53;5011997;28;20037;-85
2023/01/05 12:12:13;;;;;;;8.82;1.17;;;5.10;99.90;;;3.42;100.00;100677.66;5020628;28;20022;-84
2023/01/05 12:15:06;;;;;;;11.57;0.90;;;;;;;3.46;100.00;100694.94;5011979;28;20475;-84
2023/01/05 12:18:26;;;;;;;2.72;0.45;;;5.10;99.90;;;3.49;100.00;100700.06;5014249;28;20092;-86
2023/01/05 12:21:24;;;;;;;5.47;1.05;;;5.20;99.90;;;3.53;100.00;100692.22;5008789;28;20144;-85
2023/01/05 12:24:29;;;;;;;5.05;0.70;;;5.20;99.90;;;3.55;100.00;100695.66;5001330;28;20082;-84
2023/01/05 12:27:40;;;;;;;6.63;0.95;;;;;;;3.47;100.00;100701.84;4981690;28;20045;-83
2023/01/05 12:30:26;;;;;;;6.18;0.95;;;5.10;99.90;;;3.49;100.00;100710.47;5008914;28;20456;-87
2023/01/05 12:33:23;;;;;;;6.53;0.95;;;5.10;99.90;;;3.48;100.00;100714.00;4996343;28;20109;-88
2023/01/05 12:36:49;;;;;;;3.33;0.90;;;5.20;99.90;;;3.56;100.00;100715.59;5007381;28;20061;-83
2023/01/05 12:40:16;;;;;;;3.67;1.00;;;5.20;99.90;;;3.52;100.00;100726.94;4918645;29;20036;-86
2023/01/05 12:43:13;;;;;;;5.50;0.95;;;5.10;99.90;;;3.47;100.00;100738.28;5013648;28;20393;-87
2023/01/05 12:46:25;;;;;;;8.18;0.82;;;5.10;99.90;;;3.53;100.00;100749.50;4990487;28;20025;-83
2023/01/05 12:49:01;;;;;;;4.80;1.27;;;5.10;99.90;;;3.51;99.48;100748.66;4992534;28;20113;-83
2023/01/05 12:51:49;;;;;;;;;;;5.20;99.90;;;3.51;98.84;100769.50;5004801;23;20057;-81